createdAt,value
2022-12-05T00:02:00.182Z,3.53
2022-12-05T00:04:28.647Z,3.65
2022-12-05T00:06:56.944Z,3.15
2022-12-05T00:09:25.094Z,3.75
2022-12-05T00:11:53.651Z,3.08
2022-12-05T00:14:21.953Z,2.90
2022-12-05T00:16:50.167Z,3.75
2022-12-05T00:19:18.480Z,3.45
2022-12-05T00:21:46.809Z,3.40
2022-12-05T00:24:16.324Z,3.35
2022-12-05T00:26:44.767Z,2.78
2022-12-05T00:29:13.045Z,3.85
2022-12-05T00:31:41.414Z,3.97
2022-12-05T00:34:10.543Z,3.78
2022-12-05T00:36:39.010Z,3.90
2022-12-05T00:39:10.435Z,3.28
2022-12-05T00:41:38.934Z,3.05
2022-12-05T00:44:07.540Z,2.40
2022-12-05T00:46:36.476Z,3.05
2022-12-05T00:49:07.694Z,2.42
2022-12-05T00:51:39.146Z,2.92
2022-12-05T00:54:10.611Z,2.45
2022-12-05T00:56:39.049Z,2.90
2022-12-05T00:59:08.306Z,2.40
2022-12-05T01:01:39.573Z,3.25
2022-12-05T01:04:13.373Z,2.55
2022-12-05T01:06:42.327Z,3.75
2022-12-05T01:09:16.942Z,2.05
2022-12-05T01:11:45.874Z,3.42
2022-12-05T01:14:17.209Z,2.22
2022-12-05T01:16:47.814Z,2.90
2022-12-05T01:19:37.425Z,2.95
2022-12-05T01:22:05.552Z,2.33
2022-12-05T01:24:33.970Z,3.22
2022-12-05T01:27:02.118Z,2.72
2022-12-05T01:29:30.341Z,2.97
2022-12-05T01:31:59.119Z,2.37
2022-12-05T01:34:27.316Z,2.12
2022-12-05T01:36:55.341Z,2.67
2022-12-05T01:39:24.097Z,1.87
2022-12-05T01:41:54.567Z,1.77
2022-12-05T01:44:22.755Z,2.33
2022-12-05T01:46:52.537Z,2.55
2022-12-05T01:49:27.340Z,2.10
2022-12-05T01:52:01.584Z,2.12
2022-12-05T01:54:30.265Z,2.58
2022-12-05T01:57:01.604Z,2.22
2022-12-05T01:59:37.114Z,2.62
2022-12-05T02:02:06.866Z,1.25
2022-12-05T02:04:43.185Z,2.30
2022-12-05T02:07:11.397Z,1.65
2022-12-05T02:09:39.898Z,1.77
2022-12-05T02:12:08.785Z,2.33
2022-12-05T02:14:55.315Z,2.78
2022-12-05T02:17:34.495Z,1.83
2022-12-05T02:20:14.337Z,2.30
2022-12-05T02:23:39.356Z,2.12
2022-12-05T02:26:25.199Z,1.92
2022-12-05T02:29:29.807Z,1.92
2022-12-05T02:32:32.504Z,2.28
2022-12-05T02:35:28.300Z,2.00
2022-12-05T02:38:14.129Z,2.08
2022-12-05T02:41:00.143Z,1.85
2022-12-05T02:43:39.001Z,1.55
2022-12-05T02:46:16.604Z,1.40
2022-12-05T02:48:47.849Z,1.52
2022-12-05T02:51:21.150Z,1.62
2022-12-05T02:53:51.948Z,1.58
2022-12-05T02:56:21.008Z,1.52
2022-12-05T02:58:54.087Z,1.60
2022-12-05T03:01:25.967Z,1.77
2022-12-05T03:03:56.064Z,1.77
2022-12-05T03:06:28.807Z,1.50
2022-12-05T03:09:08.926Z,1.40
2022-12-05T03:11:50.950Z,1.20
2022-12-05T03:14:37.094Z,1.92
2022-12-05T03:17:09.568Z,1.33
2022-12-05T03:20:02.351Z,1.62
2022-12-05T03:22:35.741Z,1.10
2022-12-05T03:25:04.968Z,1.35
2022-12-05T03:28:00.016Z,2.17
2022-12-05T03:30:30.965Z,0.95
2022-12-05T03:33:20.120Z,1.55
2022-12-05T03:36:16.185Z,1.20
2022-12-05T03:38:50.974Z,1.37
2022-12-05T03:41:41.586Z,0.90
2022-12-05T03:44:18.863Z,1.50
2022-12-05T03:46:54.127Z,0.90
2022-12-05T03:49:34.307Z,1.60
2022-12-05T03:52:14.844Z,0.98
2022-12-05T03:54:51.452Z,1.27
2022-12-05T03:57:23.135Z,1.67
2022-12-05T04:00:00.114Z,1.15
2022-12-05T04:02:32.262Z,2.03
2022-12-05T04:05:09.990Z,1.98
2022-12-05T04:07:40.493Z,1.67
2022-12-05T04:10:18.692Z,1.58
2022-12-05T04:12:49.174Z,1.05
2022-12-05T04:15:48.611Z,1.92
2022-12-05T04:18:20.616Z,2.22
2022-12-05T04:21:09.250Z,1.58
2022-12-05T04:23:37.837Z,1.70
2022-12-05T04:26:11.831Z,2.10
2022-12-05T04:28:50.094Z,1.90
2022-12-05T04:31:25.132Z,2.17
2022-12-05T04:36:38.791Z,2.78
2022-12-05T04:39:17.485Z,3.08
2022-12-05T04:41:54.633Z,1.37
2022-12-05T04:44:27.804Z,2.65
2022-12-05T04:46:59.587Z,1.45
2022-12-05T04:49:31.144Z,1.33
2022-12-05T04:52:07.581Z,2.10
2022-12-05T04:54:42.888Z,1.70
2022-12-05T04:57:20.221Z,1.42
2022-12-05T04:59:49.401Z,1.45
2022-12-05T05:02:28.471Z,2.25
2022-12-05T05:04:59.894Z,1.37
2022-12-05T05:07:28.520Z,1.67
2022-12-05T05:09:57.616Z,2.37
2022-12-05T05:12:25.958Z,1.75
2022-12-05T05:14:54.453Z,2.35
2022-12-05T05:17:22.432Z,2.00
2022-12-05T05:19:50.545Z,1.80
2022-12-05T05:22:18.924Z,1.77
2022-12-05T05:24:47.039Z,1.37
2022-12-05T05:27:15.132Z,1.23
2022-12-05T05:29:44.032Z,1.60
2022-12-05T05:32:12.100Z,1.48
2022-12-05T05:34:40.401Z,2.08
2022-12-05T05:37:08.765Z,1.60
2022-12-05T05:39:36.806Z,1.73
2022-12-05T05:42:05.147Z,2.30
2022-12-05T05:44:33.668Z,1.77
2022-12-05T05:47:01.685Z,1.85
2022-12-05T05:49:29.995Z,2.85
2022-12-05T05:51:58.313Z,2.45
2022-12-05T05:54:26.363Z,2.17
2022-12-05T05:56:54.826Z,2.40
2022-12-05T05:59:23.256Z,1.60
2022-12-05T06:01:51.500Z,1.58
2022-12-05T06:04:20.472Z,2.60
2022-12-05T06:06:48.699Z,2.00
2022-12-05T06:09:16.791Z,2.47
2022-12-05T06:11:45.203Z,2.28
2022-12-05T06:14:13.202Z,2.05
2022-12-05T06:16:41.375Z,1.48
2022-12-05T06:19:09.845Z,2.17
2022-12-05T06:21:37.887Z,3.25
2022-12-05T06:24:06.329Z,1.62
2022-12-05T06:26:34.675Z,2.37
2022-12-05T06:29:02.828Z,1.92
2022-12-05T06:31:33.925Z,2.28
2022-12-05T06:34:03.900Z,2.55
2022-12-05T06:36:32.155Z,2.60
2022-12-05T06:39:00.733Z,2.22
2022-12-05T06:41:29.349Z,2.15
2022-12-05T06:44:01.873Z,2.47
2022-12-05T06:46:31.258Z,2.50
2022-12-05T06:48:59.845Z,2.67
2022-12-05T06:51:28.095Z,2.30
2022-12-05T06:53:57.059Z,1.83
2022-12-05T06:56:25.090Z,2.37
2022-12-05T06:58:53.768Z,2.60
2022-12-05T07:01:41.117Z,2.22
2022-12-05T07:04:15.970Z,1.92
2022-12-05T07:06:50.186Z,2.62
2022-12-05T07:09:44.571Z,2.05
2022-12-05T07:12:15.700Z,2.62
2022-12-05T07:14:49.068Z,1.90
2022-12-05T07:17:20.401Z,1.90
2022-12-05T07:19:50.640Z,2.72
2022-12-05T07:22:21.045Z,2.55
2022-12-05T07:24:52.343Z,2.92
2022-12-05T07:27:26.821Z,3.15
2022-12-05T07:32:25.418Z,2.70
2022-12-05T07:34:55.576Z,2.45
2022-12-05T07:37:24.076Z,2.33
2022-12-05T07:39:53.508Z,2.28
2022-12-05T07:42:21.879Z,3.35
2022-12-05T07:44:50.139Z,1.85
2022-12-05T07:47:18.677Z,2.42
2022-12-05T07:49:46.813Z,1.80
2022-12-05T07:52:15.326Z,1.83
2022-12-05T07:54:43.647Z,2.20
2022-12-05T07:57:11.702Z,2.40
2022-12-05T07:59:39.933Z,1.58
2022-12-05T08:02:09.191Z,2.12
2022-12-05T08:04:37.519Z,1.83
2022-12-05T08:07:05.605Z,2.90
2022-12-05T08:09:34.677Z,1.73
2022-12-05T08:12:03.269Z,2.12
2022-12-05T08:14:31.333Z,2.30
2022-12-05T08:16:59.610Z,1.90
2022-12-05T08:19:28.189Z,1.92
2022-12-05T08:21:56.602Z,2.50
2022-12-05T08:24:25.220Z,2.75
2022-12-05T08:26:53.608Z,2.97
2022-12-05T08:29:32.886Z,2.92
2022-12-05T08:32:01.627Z,2.47
2022-12-05T08:34:29.823Z,2.40
2022-12-05T08:36:57.878Z,2.30
2022-12-05T08:39:27.373Z,1.37
2022-12-05T08:41:55.678Z,2.60
2022-12-05T08:44:23.779Z,2.47
2022-12-05T08:46:52.375Z,1.58
2022-12-05T08:49:20.473Z,3.00
2022-12-05T08:51:48.623Z,1.70
2022-12-05T08:54:17.390Z,1.95
2022-12-05T08:56:45.567Z,1.70
2022-12-05T08:59:13.579Z,1.95
2022-12-05T09:01:42.418Z,2.75
2022-12-05T09:04:12.427Z,2.70
2022-12-05T09:06:41.196Z,2.40
2022-12-05T09:09:12.018Z,2.90
2022-12-05T09:11:50.788Z,2.05
2022-12-05T09:14:19.435Z,2.53
2022-12-05T09:16:47.762Z,2.20
2022-12-05T09:19:24.963Z,2.20
2022-12-05T09:21:55.094Z,1.80
2022-12-05T09:24:23.284Z,2.92
2022-12-05T09:26:51.800Z,1.83
2022-12-05T09:29:20.206Z,2.65
2022-12-05T09:31:48.922Z,2.03
2022-12-05T09:34:18.485Z,2.62
2022-12-05T09:36:55.751Z,2.20
2022-12-05T09:39:24.221Z,2.33
2022-12-05T09:42:13.185Z,2.95
2022-12-05T09:44:48.909Z,2.55
2022-12-05T09:47:19.702Z,2.67
2022-12-05T09:49:54.303Z,2.15
2022-12-05T09:52:30.288Z,2.75
2022-12-05T09:57:37.158Z,2.40
2022-12-05T10:00:07.583Z,2.62
2022-12-05T10:02:51.151Z,3.10
2022-12-05T10:05:43.840Z,2.65
2022-12-05T10:08:21.993Z,2.58
2022-12-05T10:11:01.500Z,2.12
2022-12-05T10:13:51.072Z,2.10
2022-12-05T10:16:51.853Z,2.00
2022-12-05T10:19:29.132Z,2.03
2022-12-05T10:22:28.433Z,3.00
2022-12-05T10:25:04.620Z,3.35
2022-12-05T10:27:45.262Z,2.20
2022-12-05T10:30:21.053Z,2.95
2022-12-05T10:33:01.841Z,2.92
2022-12-05T10:35:36.197Z,2.60
2022-12-05T10:38:18.316Z,3.42
2022-12-05T10:40:51.337Z,3.08
2022-12-05T10:43:26.364Z,2.35
2022-12-05T10:45:55.429Z,2.00
2022-12-05T10:48:24.785Z,2.58
2022-12-05T10:50:55.875Z,2.72
2022-12-05T10:53:28.840Z,3.35
2022-12-05T10:58:56.636Z,2.55
2022-12-05T11:01:26.963Z,2.47
2022-12-05T11:04:01.216Z,3.05
2022-12-05T11:06:31.891Z,2.37
2022-12-05T11:09:18.256Z,2.05
2022-12-05T11:12:17.339Z,2.97
2022-12-05T11:14:58.434Z,2.97
2022-12-05T11:17:38.987Z,3.92
2022-12-05T11:20:17.620Z,2.70
2022-12-05T11:22:49.578Z,3.08
2022-12-05T11:25:36.748Z,2.55
2022-12-05T11:28:17.445Z,2.75
2022-12-05T11:31:03.020Z,2.70
2022-12-05T11:33:33.764Z,2.55
2022-12-05T11:36:23.625Z,2.28
2022-12-05T11:38:52.763Z,2.12
2022-12-05T11:41:20.972Z,2.50
2022-12-05T11:43:54.800Z,2.42
2022-12-05T11:46:50.409Z,2.43
2022-12-05T11:49:50.413Z,3.87
2022-12-05T11:52:25.212Z,3.15
2022-12-05T11:55:12.486Z,3.30
2022-12-05T11:57:59.178Z,3.35
2022-12-05T12:00:38.054Z,2.37
2022-12-05T12:03:38.149Z,3.97
2022-12-05T12:06:25.232Z,2.85
2022-12-05T12:09:06.017Z,2.00
2022-12-05T12:11:52.752Z,2.28
2022-12-05T12:14:34.860Z,1.92
2022-12-05T12:17:27.665Z,2.85
2022-12-05T12:19:56.572Z,2.67
2022-12-05T12:22:38.727Z,2.55
2022-12-05T12:25:38.931Z,3.03
2022-12-05T12:28:33.950Z,3.08
2022-12-05T12:31:31.461Z,2.87
2022-12-05T12:34:24.973Z,2.67
2022-12-05T12:37:14.207Z,3.50
2022-12-05T12:40:07.449Z,2.62
2022-12-05T12:42:44.696Z,2.58
2022-12-05T12:45:47.982Z,2.53
2022-12-05T12:48:16.575Z,3.35
2022-12-05T12:50:50.716Z,3.10
2022-12-05T12:54:04.546Z,2.78
2022-12-05T12:56:50.579Z,2.42
2022-12-05T12:59:43.063Z,2.78
2022-12-05T13:02:32.070Z,2.55
2022-12-05T13:05:22.790Z,3.35
2022-12-05T13:08:05.739Z,3.55
2022-12-05T13:10:40.695Z,3.40
2022-12-05T13:13:16.332Z,3.60
2022-12-05T13:15:51.661Z,3.60
2022-12-05T13:20:56.442Z,3.60
2022-12-05T13:23:27.585Z,4.25
2022-12-05T13:25:58.680Z,3.58
2022-12-05T13:28:42.315Z,3.30
2022-12-05T13:31:14.195Z,3.45
2022-12-05T13:33:51.621Z,4.57
2022-12-05T13:36:40.810Z,3.22
2022-12-05T13:39:33.638Z,3.08
2022-12-05T13:42:17.787Z,3.10
2022-12-05T13:44:50.535Z,3.80
2022-12-05T13:47:33.804Z,4.18
2022-12-05T13:50:11.587Z,3.53
2022-12-05T13:52:42.880Z,3.80
2022-12-05T13:55:35.830Z,2.22
2022-12-05T13:58:27.714Z,2.50
2022-12-05T14:01:24.904Z,2.67
2022-12-05T14:03:59.466Z,3.35
2022-12-05T14:06:50.889Z,3.08
2022-12-05T14:09:19.213Z,3.00
2022-12-05T14:12:12.473Z,1.90
2022-12-05T14:14:56.822Z,3.20
2022-12-05T14:17:27.353Z,2.65
2022-12-05T14:20:30.177Z,3.97
2022-12-05T14:25:36.170Z,2.72
2022-12-05T14:28:15.809Z,2.85
2022-12-05T14:31:01.617Z,2.87
2022-12-05T14:33:30.017Z,4.00
2022-12-05T14:36:08.818Z,2.65
2022-12-05T14:38:38.095Z,3.60
2022-12-05T14:41:15.341Z,3.97
2022-12-05T14:43:44.448Z,2.42
2022-12-05T14:46:23.780Z,3.33
2022-12-05T14:48:52.594Z,4.15
2022-12-05T14:51:33.166Z,3.53
2022-12-05T14:54:19.074Z,3.03
2022-12-05T14:56:52.770Z,3.40
2022-12-05T14:59:29.156Z,4.43
2022-12-05T15:02:01.003Z,3.22
2022-12-05T15:04:43.763Z,3.28
2022-12-05T15:07:37.521Z,3.95
2022-12-05T15:10:16.326Z,3.25
2022-12-05T15:12:54.000Z,3.00
2022-12-05T15:15:36.518Z,3.78
2022-12-05T15:18:23.271Z,8.90
2022-12-05T15:21:01.939Z,5.10
2022-12-05T15:23:44.042Z,5.70
2022-12-05T15:29:23.280Z,6.95
2022-12-05T15:32:08.242Z,6.78
2022-12-05T15:37:29.202Z,4.80
2022-12-05T15:40:07.634Z,4.05
2022-12-05T15:42:43.143Z,6.15
2022-12-05T15:45:17.102Z,9.13
2022-12-05T15:47:51.014Z,8.80
2022-12-05T15:50:47.506Z,10.50
2022-12-05T15:53:37.127Z,4.55
2022-12-05T15:56:05.613Z,4.60
2022-12-05T15:58:39.238Z,4.47
2022-12-05T16:01:28.893Z,4.57
2022-12-05T16:04:12.759Z,5.37
2022-12-05T16:06:48.909Z,3.35
2022-12-05T16:09:21.890Z,3.87
2022-12-05T16:12:34.602Z,8.25
2022-12-05T16:15:08.539Z,11.48
2022-12-05T16:17:42.309Z,17.95
2022-12-05T16:20:22.318Z,11.68
2022-12-05T16:22:54.308Z,7.95
2022-12-05T16:25:32.794Z,4.80
2022-12-05T16:28:16.813Z,3.92
2022-12-05T16:30:59.786Z,3.70
2022-12-05T16:33:29.983Z,5.50
2022-12-05T16:36:12.587Z,4.22
2022-12-05T16:38:43.293Z,4.70
2022-12-05T16:41:15.512Z,4.70
2022-12-05T16:43:45.970Z,3.65
2022-12-05T16:46:14.516Z,4.20
2022-12-05T16:48:47.637Z,3.97
2022-12-05T16:51:27.061Z,4.75
2022-12-05T16:53:56.791Z,3.72
2022-12-05T16:56:28.150Z,4.03
2022-12-05T16:58:57.838Z,5.95
2022-12-05T17:01:27.214Z,6.80
2022-12-05T17:03:56.521Z,5.00
2022-12-05T17:06:26.724Z,5.95
2022-12-05T17:08:55.705Z,5.72
2022-12-05T17:11:35.623Z,6.28
2022-12-05T17:14:04.383Z,5.68
2022-12-05T17:16:32.887Z,4.45
2022-12-05T17:19:01.175Z,4.95
2022-12-05T17:21:32.352Z,6.05
2022-12-05T17:24:01.119Z,6.93
2022-12-05T17:26:29.517Z,5.95
2022-12-05T17:28:57.734Z,4.20
2022-12-05T17:31:26.164Z,5.93
2022-12-05T17:33:55.028Z,5.68
2022-12-05T17:36:23.249Z,5.40
2022-12-05T17:38:51.653Z,5.05
2022-12-05T17:41:23.465Z,4.85
2022-12-05T17:43:51.903Z,5.43
2022-12-05T17:46:23.266Z,5.30
2022-12-05T17:48:52.068Z,5.00
2022-12-05T17:51:22.550Z,5.00
2022-12-05T17:53:52.954Z,4.22
2022-12-05T17:56:22.122Z,4.57
2022-12-05T17:58:50.797Z,5.28
2022-12-05T18:01:20.894Z,4.68
2022-12-05T18:03:49.698Z,4.70
2022-12-05T18:06:18.596Z,4.03
2022-12-05T18:08:46.757Z,2.97
2022-12-05T18:11:15.779Z,3.85
2022-12-05T18:13:44.068Z,4.10
2022-12-05T18:16:12.429Z,4.65
2022-12-05T18:18:40.839Z,3.92
2022-12-05T18:21:15.166Z,7.32
2022-12-05T18:23:43.745Z,6.20
2022-12-05T18:26:12.197Z,6.93
2022-12-05T18:28:40.403Z,7.30
2022-12-05T18:31:17.345Z,8.15
2022-12-05T18:33:46.658Z,5.57
2022-12-05T18:36:18.079Z,6.75
2022-12-05T18:38:51.424Z,5.18
2022-12-05T18:41:23.259Z,4.25
2022-12-05T18:43:51.556Z,4.60
2022-12-05T18:46:20.361Z,6.00
2022-12-05T18:48:49.114Z,9.18
2022-12-05T18:51:20.661Z,7.90
2022-12-05T18:53:52.512Z,8.38
2022-12-05T18:56:25.073Z,7.87
2022-12-05T18:59:05.744Z,6.35
2022-12-05T19:01:36.427Z,5.05
2022-12-05T19:04:06.527Z,6.82
2022-12-05T19:06:36.790Z,6.22
2022-12-05T19:09:09.136Z,4.87
2022-12-05T19:11:45.650Z,5.78
2022-12-05T19:14:18.946Z,6.37
2022-12-05T19:16:56.317Z,6.00
2022-12-05T19:19:28.751Z,4.87
2022-12-05T19:21:59.002Z,5.53
2022-12-05T19:24:28.076Z,5.18
2022-12-05T19:26:56.847Z,6.37
2022-12-05T19:29:25.205Z,5.70
2022-12-05T19:31:54.024Z,7.80
2022-12-05T19:34:24.951Z,7.12
2022-12-05T19:36:53.876Z,7.20
2022-12-05T19:39:27.425Z,4.93
2022-12-05T19:41:59.336Z,5.00
2022-12-05T19:44:28.042Z,4.50
2022-12-05T19:46:56.800Z,4.32
2022-12-05T19:49:25.685Z,5.12
2022-12-05T19:51:53.945Z,5.43
2022-12-05T19:54:24.212Z,4.20
2022-12-05T19:56:58.492Z,4.70
2022-12-05T19:59:27.206Z,6.18
2022-12-05T20:01:55.564Z,6.22
2022-12-05T20:04:24.544Z,6.97
2022-12-05T20:06:53.055Z,5.68
2022-12-05T20:09:22.528Z,4.62
2022-12-05T20:11:55.049Z,6.70
2022-12-05T20:14:25.582Z,5.10
2022-12-05T20:16:54.623Z,6.47
2022-12-05T20:19:24.137Z,6.55
2022-12-05T20:21:52.664Z,6.18
2022-12-05T20:24:22.602Z,5.40
2022-12-05T20:26:52.110Z,6.45
2022-12-05T20:29:21.011Z,6.12
2022-12-05T20:31:52.257Z,5.50
2022-12-05T20:34:21.116Z,5.40
2022-12-05T20:36:49.797Z,6.28
2022-12-05T20:39:18.329Z,6.95
2022-12-05T20:41:49.759Z,6.68
2022-12-05T20:44:18.233Z,8.10
2022-12-05T20:46:50.248Z,6.65
2022-12-05T20:49:18.881Z,5.00
2022-12-05T20:51:48.085Z,5.50
2022-12-05T20:54:19.150Z,6.28
2022-12-05T20:56:49.208Z,5.45
2022-12-05T20:59:17.750Z,5.47
2022-12-05T21:01:47.589Z,6.12
2022-12-05T21:04:16.662Z,5.03
2022-12-05T21:06:46.029Z,7.50
2022-12-05T21:09:26.938Z,7.03
2022-12-05T21:11:56.411Z,6.37
2022-12-05T21:14:24.642Z,6.05
2022-12-05T21:16:53.610Z,5.62
2022-12-05T21:19:22.433Z,6.75
2022-12-05T21:21:50.741Z,5.70
2022-12-05T21:24:19.302Z,4.78
2022-12-05T21:26:50.160Z,5.78
2022-12-05T21:29:18.782Z,5.85
2022-12-05T21:31:50.024Z,5.47
2022-12-05T21:34:21.181Z,5.30
2022-12-05T21:36:49.382Z,5.43
2022-12-05T21:39:17.976Z,5.82
2022-12-05T21:41:46.788Z,5.65
2022-12-05T21:44:15.003Z,6.22
2022-12-05T21:46:43.353Z,6.53
2022-12-05T21:49:12.299Z,7.15
2022-12-05T21:51:40.605Z,7.03
2022-12-05T21:54:08.770Z,6.57
2022-12-05T21:56:37.222Z,5.62
2022-12-05T21:59:05.363Z,6.25
2022-12-05T22:01:33.672Z,5.43
2022-12-05T22:04:02.317Z,6.50
2022-12-05T22:06:33.798Z,4.68
2022-12-05T22:09:03.497Z,6.18
2022-12-05T22:11:31.622Z,7.72
2022-12-05T22:13:59.657Z,5.25
2022-12-05T22:16:33.181Z,5.15
2022-12-05T22:19:02.427Z,5.65
2022-12-05T22:21:36.226Z,4.75
2022-12-05T22:24:04.526Z,5.90
2022-12-05T22:26:32.842Z,5.95
2022-12-05T22:29:01.497Z,5.40
2022-12-05T22:31:29.676Z,4.70
2022-12-05T22:33:58.301Z,4.82
2022-12-05T22:36:26.641Z,5.20
2022-12-05T22:38:54.788Z,5.00
2022-12-05T22:41:26.006Z,6.00
2022-12-05T22:43:56.856Z,5.35
2022-12-05T22:46:27.231Z,5.40
2022-12-05T22:48:55.803Z,7.93
2022-12-05T22:51:24.500Z,4.50
2022-12-05T22:53:54.244Z,6.28
2022-12-05T22:56:24.062Z,6.03
2022-12-05T22:58:57.021Z,5.25
2022-12-05T23:01:27.830Z,5.10
2022-12-05T23:04:01.739Z,6.32
2022-12-05T23:06:31.372Z,6.18
2022-12-05T23:09:00.486Z,5.03
2022-12-05T23:11:34.703Z,4.30
2022-12-05T23:14:04.270Z,4.72
2022-12-05T23:16:33.914Z,5.28
2022-12-05T23:19:05.191Z,5.45
2022-12-05T23:21:39.056Z,5.25
2022-12-05T23:24:12.456Z,4.82
2022-12-05T23:26:43.176Z,7.07
2022-12-05T23:29:12.893Z,5.85
2022-12-05T23:31:42.136Z,4.87
2022-12-05T23:34:11.810Z,5.32
2022-12-05T23:36:40.218Z,5.55
2022-12-05T23:39:08.596Z,5.35
2022-12-05T23:41:36.860Z,5.45
2022-12-05T23:44:05.530Z,6.12
2022-12-05T23:46:33.778Z,4.60
2022-12-05T23:49:02.061Z,4.25
2022-12-05T23:51:31.235Z,5.62
2022-12-05T23:54:01.714Z,4.78
2022-12-05T23:56:32.013Z,4.87
2022-12-05T23:59:01.953Z,4.60
